Time;durP1;ratioP1;P1;durP2;ratioP2;P2;SDS_P1;SDS_P2;PMS_P1;PMS_P2;Temp;Humidity;BMP_temperature;BMP_pressure;BME280_temperature;BME280_humidity;BME280_pressure;Samples;Min_cycle;Max_cycle;Signal;HPM_P1;HPM_P2
2022/06/14 00:01:34;;;;;;;11.88;5.60;;;14.80;1.00;;;;;;5049552;28;20413;-55
2022/06/14 00:04:00;;;;;;;10.60;5.40;;;14.70;99.90;;;;;;5031252;28;20917;-55
2022/06/14 00:06:30;;;;;;;12.18;5.45;;;14.70;99.90;;;;;;5048359;28;20405;-56
2022/06/14 00:08:56;;;;;;;9.70;5.32;;;14.60;99.90;;;;;;5049302;28;20440;-55
2022/06/14 00:11:24;;;;;;;11.60;5.45;;;14.50;99.90;;;;;;5048019;28;20519;-55
2022/06/14 00:13:52;;;;;;;13.48;6.25;;;14.50;1.00;;;;;;5049210;28;20385;-55
2022/06/14 00:16:19;;;;;;;11.40;5.50;;;14.50;1.00;;;;;;5048081;28;20990;-55
2022/06/14 00:18:45;;;;;;;15.83;5.63;;;14.50;1.00;;;;;;5049161;28;20397;-55
2022/06/14 00:21:11;;;;;;;11.02;5.43;;;14.50;1.00;;;;;;5048132;28;20898;-53
2022/06/14 00:23:37;;;;;;;16.27;6.10;;;14.40;99.90;;;;;;5048606;28;20448;-53
2022/06/14 00:26:04;;;;;;;12.35;5.93;;;14.30;1.00;;;;;;5048653;28;20932;-53
2022/06/14 00:28:31;;;;;;;14.68;5.80;;;14.30;1.00;;;;;;5048210;28;20447;-53
2022/06/14 00:31:05;;;;;;;12.32;5.88;;;14.20;99.90;;;;;;5049325;28;20909;-53
2022/06/14 00:33:31;;;;;;;11.68;6.40;;;14.20;99.90;;;;;;5049375;28;20528;-53
2022/06/14 00:36:05;;;;;;;10.57;6.10;;;14.10;99.90;;;;;;5048907;28;20495;-53
2022/06/14 00:38:32;;;;;;;11.63;5.70;;;14.10;99.90;;;;;;5048729;28;20406;-53
2022/06/14 00:41:00;;;;;;;14.13;6.25;;;14.00;1.00;;;;;;5048610;28;20389;-53
2022/06/14 00:43:27;;;;;;;13.48;6.25;;;14.00;1.00;;;;;;5047742;28;20389;-53
2022/06/14 00:45:53;;;;;;;14.13;6.63;;;13.90;1.00;;;;;;5047164;28;20409;-53
2022/06/14 00:48:21;;;;;;;11.33;6.20;;;13.90;1.00;;;;;;5047281;28;20492;-53
2022/06/14 00:51:13;;;;;;;13.93;6.40;;;13.90;1.00;;;;;;5048868;28;20481;-53
2022/06/14 00:53:56;;;;;;;13.90;6.55;;;13.80;40.90;;;;;;5045192;28;20838;-53
2022/06/14 00:56:42;;;;;;;12.80;6.30;;;13.80;1.00;;;;;;5048238;28;20546;-54
2022/06/14 00:59:21;;;;;;;10.80;6.35;;;13.90;99.90;;;;;;5042568;28;20440;-53
2022/06/14 01:01:49;;;;;;;12.60;5.80;;;13.90;1.00;;;;;;5047893;28;20476;-53
2022/06/14 01:04:19;;;;;;;12.00;6.22;;;13.80;66.20;;;;;;5052483;28;20505;-53
2022/06/14 01:07:13;;;;;;;12.95;6.55;;;13.80;96.20;;;;;;5052645;28;20381;-53
2022/06/14 01:09:48;;;;;;;12.88;6.20;;;13.80;99.90;;;;;;5052742;28;20500;-53
2022/06/14 01:12:19;;;;;;;12.73;6.60;;;13.90;99.90;;;;;;5047080;28;20446;-52
2022/06/14 01:15:00;;;;;;;12.50;5.93;;;13.80;1.00;;;;;;5047023;28;20413;-53
2022/06/14 01:17:26;;;;;;;17.33;6.68;;;13.70;99.90;;;;;;5051549;28;21015;-53
2022/06/14 01:19:53;;;;;;;13.00;6.80;;;13.70;1.00;;;;;;5051826;28;20397;-53
2022/06/14 01:22:19;;;;;;;12.93;6.03;;;13.80;1.00;;;;;;5050659;28;20480;-52
2022/06/14 01:24:44;;;;;;;11.82;6.45;;;13.80;1.00;;;;;;5051679;28;20520;-53
2022/06/14 01:27:14;;;;;;;10.97;5.97;;;13.80;99.90;;;;;;5051079;28;20488;-53
2022/06/14 01:29:45;;;;;;;11.27;5.90;;;13.80;99.90;;;;;;5052091;28;20393;-52
2022/06/14 01:32:13;;;;;;;14.38;6.55;;;13.70;1.00;;;;;;5051286;28;20384;-52
2022/06/14 01:34:42;;;;;;;15.38;6.38;;;13.70;99.90;;;;;;5052060;28;20889;-52
2022/06/14 01:37:09;;;;;;;13.32;7.05;;;13.60;99.90;;;;;;5050778;28;20437;-53
2022/06/14 01:39:36;;;;;;;12.02;6.35;;;13.60;99.90;;;;;;5051331;28;21271;-52
2022/06/14 01:42:08;;;;;;;16.08;7.10;;;13.60;99.90;;;;;;5047250;28;20855;-52
2022/06/14 01:44:52;;;;;;;11.83;7.33;;;13.60;99.90;;;;;;5051519;28;20420;-56
2022/06/14 01:47:31;;;;;;;13.20;6.60;;;13.60;1.00;;;;;;5051369;28;20412;-54
2022/06/14 01:53:29;;;;;;;11.80;6.70;;;13.60;20.80;;;;;;5044790;28;20435;-57
2022/06/14 01:56:15;;;;;;;13.55;7.25;;;13.50;99.90;;;;;;5051369;28;20412;-57
2022/06/14 01:59:07;;;;;;;14.38;7.35;;;13.50;99.90;;;;;;5049960;28;20397;-52
2022/06/14 02:01:57;;;;;;;13.80;6.85;;;13.50;1.00;;;;;;5046992;28;20426;-52
2022/06/14 02:04:55;;;;;;;16.25;7.25;;;13.50;1.00;;;;;;5051142;28;20513;-56
2022/06/14 02:07:38;;;;;;;14.68;7.05;;;13.40;99.90;;;;;;5046504;28;20384;-52
2022/06/14 02:10:23;;;;;;;12.77;7.13;;;13.40;1.00;;;;;;5051443;28;21045;-52
2022/06/14 02:12:57;;;;;;;11.70;7.15;;;13.30;1.00;;;;;;5051220;28;20909;-53
2022/06/14 02:15:31;;;;;;;14.43;6.97;;;13.30;1.00;;;;;;5050781;28;20933;-53
2022/06/14 02:18:10;;;;;;;12.40;7.10;;;13.30;1.00;;;;;;5051387;28;20943;-53
2022/06/14 02:20:48;;;;;;;14.27;7.05;;;13.30;1.00;;;;;;5051240;28;20400;-53
2022/06/14 02:23:14;;;;;;;13.35;6.60;;;13.30;99.90;;;;;;5050318;28;20417;-53
2022/06/14 02:25:44;;;;;;;15.47;6.20;;;13.30;1.00;;;;;;5051064;28;20420;-53
2022/06/14 02:28:17;;;;;;;14.95;7.30;;;13.30;99.90;;;;;;5049737;28;20445;-53
2022/06/14 02:30:56;;;;;;;13.05;7.03;;;13.30;99.90;;;;;;5051248;28;20434;-53
2022/06/14 02:33:36;;;;;;;13.65;6.63;;;13.30;99.90;;;;;;5044230;28;20472;-53
2022/06/14 02:36:08;;;;;;;11.90;7.28;;;13.20;39.60;;;;;;5050617;28;20526;-55
2022/06/14 02:38:37;;;;;;;16.60;8.17;;;13.10;1.00;;;;;;5051261;28;20739;-58
2022/06/14 02:41:20;;;;;;;14.70;7.10;;;13.10;99.90;;;;;;5051242;28;20704;-53
2022/06/14 02:44:10;;;;;;;11.77;7.15;;;13.10;99.90;;;;;;5050502;28;20393;-53
2022/06/14 02:47:09;;;;;;;14.52;7.40;;;13.00;99.90;;;;;;5045222;28;20886;-53
2022/06/14 02:49:42;;;;;;;12.80;6.80;;;13.00;99.90;;;;;;5051443;28;20393;-53
2022/06/14 02:52:24;;;;;;;13.70;7.00;;;13.10;1.00;;;;;;5048287;28;20405;-53
2022/06/14 02:54:49;;;;;;;13.93;7.03;;;13.10;1.00;;;;;;5045717;28;20458;-53
2022/06/14 02:57:44;;;;;;;14.30;7.03;;;13.10;99.90;;;;;;5049942;28;21065;-53
2022/06/14 03:00:17;;;;;;;16.50;7.70;;;12.90;99.90;;;;;;5048326;28;20882;-53
2022/06/14 03:02:58;;;;;;;15.63;7.10;;;12.90;99.90;;;;;;5050550;28;20434;-53
2022/06/14 03:05:39;;;;;;;14.20;6.80;;;12.80;99.90;;;;;;5043709;28;20480;-53
2022/06/14 03:08:16;;;;;;;15.80;7.67;;;12.70;99.90;;;;;;5050073;28;20428;-54
2022/06/14 03:11:02;;;;;;;12.20;6.97;;;12.70;1.00;;;;;;5049096;28;20756;-53
2022/06/14 03:13:31;;;;;;;16.35;7.75;;;12.80;1.00;;;;;;5049413;28;20483;-53
2022/06/14 03:16:19;;;;;;;13.45;7.13;;;12.80;1.00;;;;;;5050363;28;20480;-56
2022/06/14 03:19:00;;;;;;;14.20;7.60;;;12.80;1.00;;;;;;5049263;28;20459;-58
2022/06/14 03:21:35;;;;;;;15.65;7.72;;;12.80;1.00;;;;;;5049271;28;20393;-58
2022/06/14 03:24:10;;;;;;;16.65;8.30;;;12.70;99.90;;;;;;5047903;28;20520;-53
2022/06/14 03:27:00;;;;;;;13.90;7.50;;;12.70;99.90;;;;;;5049548;28;20405;-53
2022/06/14 03:29:34;;;;;;;15.20;7.60;;;12.70;99.90;;;;;;5045253;28;20423;-53
2022/06/14 03:32:21;;;;;;;15.35;7.70;;;12.70;1.00;;;;;;5050049;28;20449;-53
2022/06/14 03:34:54;;;;;;;23.80;7.82;;;12.70;99.90;;;;;;5049249;28;20428;-53
2022/06/14 03:37:20;;;;;;;17.08;7.70;;;12.60;1.00;;;;;;5042371;28;20393;-53
2022/06/14 03:39:52;;;;;;;14.98;7.85;;;12.50;1.00;;;;;;5032348;28;20808;-53
2022/06/14 03:42:18;;;;;;;13.67;7.50;;;12.50;1.00;;;;;;5048463;28;20424;-53
2022/06/14 03:44:44;;;;;;;16.80;7.70;;;12.50;13.70;;;;;;5049612;28;20480;-53
2022/06/14 03:47:10;;;;;;;16.58;7.93;;;12.50;99.90;;;;;;5048571;28;20812;-54
2022/06/14 03:49:38;;;;;;;16.20;7.87;;;12.40;99.90;;;;;;5048853;28;20425;-53
2022/06/14 03:52:35;;;;;;;16.67;7.68;;;12.50;44.50;;;;;;5048630;28;20396;-53
2022/06/14 03:55:35;;;;;;;14.90;7.78;;;12.50;90.70;;;;;;5028301;28;20425;-53
2022/06/14 03:58:19;;;;;;;13.75;7.90;;;12.70;1.00;;;;;;5044757;28;20434;-53
2022/06/14 04:00:56;;;;;;;14.45;8.07;;;12.70;1.00;;;;;;5049276;28;20470;-53
2022/06/14 04:03:27;;;;;;;14.77;7.70;;;12.70;1.00;;;;;;5043184;28;20406;-59
2022/06/14 04:06:22;;;;;;;15.35;8.00;;;12.70;1.00;;;;;;5047942;28;20623;-53
2022/06/14 04:09:46;;;;;;;14.80;7.95;;;12.80;1.00;;;;;;5021160;28;20478;-53
2022/06/14 04:12:21;;;;;;;13.63;7.93;;;12.90;1.00;;;;;;5019202;28;20404;-54
2022/06/14 04:15:05;;;;;;;13.07;7.60;;;13.00;1.00;;;;;;5048817;28;20886;-53
2022/06/14 04:17:40;;;;;;;14.05;7.30;;;13.20;99.90;;;;;;5024243;28;20412;-53
2022/06/14 04:20:21;;;;;;;12.27;7.00;;;13.30;1.00;;;;;;5043568;28;20988;-53
2022/06/14 04:23:05;;;;;;;15.63;7.70;;;13.50;99.90;;;;;;5048769;28;20412;-53
2022/06/14 04:25:37;;;;;;;14.33;7.07;;;13.60;1.00;;;;;;5048021;28;20449;-58
2022/06/14 04:28:20;;;;;;;13.20;7.00;;;13.80;1.00;;;;;;5048402;28;20416;-53
2022/06/14 04:30:49;;;;;;;11.15;6.60;;;13.90;99.90;;;;;;5048968;28;20472;-53
2022/06/14 04:33:42;;;;;;;12.40;6.67;;;14.00;1.00;;;;;;5048230;28;20716;-53
2022/06/14 04:36:18;;;;;;;14.57;7.00;;;14.10;99.90;;;;;;5037413;28;20494;-54
2022/06/14 04:38:55;;;;;;;15.00;6.88;;;14.20;74.20;;;;;;5048556;28;20425;-53
2022/06/14 04:41:55;;;;;;;14.13;7.07;;;14.40;1.00;;;;;;5043482;28;20404;-53
2022/06/14 04:44:26;;;;;;;13.95;7.50;;;14.50;99.90;;;;;;5048040;28;20389;-53
2022/06/14 04:46:56;;;;;;;13.98;7.40;;;14.70;99.90;;;;;;5049097;28;20864;-53
2022/06/14 04:49:38;;;;;;;16.38;7.10;;;14.80;1.00;;;;;;5048115;28;20467;-53
2022/06/14 04:52:14;;;;;;;13.77;7.15;;;15.10;1.00;;;;;;5048107;28;20432;-54
2022/06/14 04:54:59;;;;;;;12.50;6.50;;;15.40;99.90;;;;;;5048803;28;20508;-54
2022/06/14 04:57:43;;;;;;;14.55;6.90;;;16.00;1.00;;;;;;5046449;28;20421;-54
2022/06/14 05:00:17;;;;;;;13.88;6.20;;;17.10;98.60;;;;;;5045713;28;20393;-55
2022/06/14 05:03:01;;;;;;;13.23;6.60;;;18.40;1.00;;;;;;5047829;28;20862;-56
2022/06/14 05:05:55;;;;;;;13.85;6.55;;;19.80;1.00;;;;;;5043729;28;20417;-57
2022/06/14 05:08:45;;;;;;;12.48;6.25;;;21.00;99.90;;;;;;5033945;28;20401;-56
2022/06/14 05:11:14;;;;;;;12.10;5.97;;;22.00;99.90;;;;;;5044190;28;20470;-60
2022/06/14 05:14:04;;;;;;;14.13;6.25;;;22.60;99.90;;;;;;5048230;28;20397;-54
2022/06/14 05:16:52;;;;;;;13.40;6.50;;;22.80;99.90;;;;;;5048052;28;20411;-55
2022/06/14 05:19:36;;;;;;;13.30;6.15;;;23.60;99.90;;;;;;5044320;28;20404;-55
2022/06/14 05:22:08;;;;;;;12.43;6.47;;;24.30;99.90;;;;;;5030448;28;20753;-55
2022/06/14 05:24:36;;;;;;;11.82;6.70;;;25.00;99.90;;;;;;5047899;28;20506;-55
2022/06/14 05:27:32;;;;;;;10.68;6.80;;;26.10;99.90;;;;;;5046543;28;20409;-55
2022/06/14 05:30:06;;;;;;;13.18;8.40;;;26.90;99.90;;;;;;5043468;28;20393;-55
2022/06/14 05:32:54;;;;;;;13.73;7.95;;;26.70;99.90;;;;;;5043716;28;20491;-55
2022/06/14 05:35:37;;;;;;;15.40;7.60;;;25.60;99.90;;;;;;5046908;28;20424;-55
2022/06/14 05:38:25;;;;;;;11.52;7.20;;;25.30;99.90;;;;;;5043273;28;20424;-56
2022/06/14 05:41:09;;;;;;;14.93;8.33;;;25.40;99.90;;;;;;5045927;28;20397;-55
2022/06/14 05:43:45;;;;;;;14.20;9.00;;;26.00;99.90;;;;;;5047540;28;20398;-55
2022/06/14 05:46:54;;;;;;;13.45;9.57;;;26.80;99.90;;;;;;5042296;28;20769;-55
2022/06/14 05:49:32;;;;;;;14.50;9.48;;;27.30;99.90;;;;;;4966446;28;20412;-55
2022/06/14 05:52:24;;;;;;;14.07;8.95;;;27.80;99.90;;;;;;5041557;28;20397;-55
2022/06/14 05:54:58;;;;;;;12.75;10.02;;;27.90;99.90;;;;;;5049053;28;20417;-55
2022/06/14 05:57:37;;;;;;;14.40;10.60;;;27.80;99.90;;;;;;5050066;28;20393;-56
2022/06/14 06:00:10;;;;;;;16.13;10.60;;;28.50;99.90;;;;;;5045583;28;20405;-55
2022/06/14 06:02:41;;;;;;;14.13;10.27;;;28.80;99.90;;;;;;5051302;28;20938;-55
2022/06/14 06:05:29;;;;;;;15.80;10.88;;;28.50;99.90;;;;;;5044408;28;20443;-55
2022/06/14 06:08:36;;;;;;;16.63;10.95;;;29.10;99.90;;;;;;5050012;28;20389;-55
2022/06/14 06:11:36;;;;;;;14.57;9.98;;;29.40;99.90;;;;;;5048554;28;20586;-55
2022/06/14 06:14:28;;;;;;;15.38;11.70;;;29.60;99.90;;;;;;5050373;28;20470;-55
2022/06/14 06:17:02;;;;;;;13.35;8.13;;;29.20;99.90;;;;;;5050862;28;20468;-54
2022/06/14 06:19:41;;;;;;;15.70;8.55;;;29.70;99.90;;;;;;5049896;28;21278;-55
2022/06/14 06:22:15;;;;;;;20.07;13.37;;;30.40;99.90;;;;;;5050819;28;20416;-54
2022/06/14 06:25:04;;;;;;;14.80;11.25;;;30.50;99.90;;;;;;5044948;28;20766;-54
2022/06/14 06:27:45;;;;;;;17.42;11.70;;;30.30;99.90;;;;;;5047377;28;20469;-54
2022/06/14 06:30:23;;;;;;;14.85;7.70;;;30.40;99.90;;;;;;5050215;28;21009;-55
2022/06/14 06:32:49;;;;;;;15.75;8.70;;;30.60;99.90;;;;;;5047369;28;20393;-55
2022/06/14 06:35:15;;;;;;;13.60;7.80;;;30.80;99.90;;;;;;5031158;28;20448;-55
2022/06/14 06:37:48;;;;;;;15.25;9.18;;;30.90;99.90;;;;;;5050313;28;20467;-54
2022/06/14 06:40:23;;;;;;;15.93;10.40;;;30.70;99.90;;;;;;5049752;28;20408;-56
2022/06/14 06:43:09;;;;;;;13.05;9.05;;;30.30;99.90;;;;;;5050734;28;20539;-57
2022/06/14 06:45:49;;;;;;;15.43;11.30;;;30.00;99.90;;;;;;5050382;28;20450;-57
2022/06/14 06:48:22;;;;;;;16.50;10.82;;;30.40;99.90;;;;;;5050132;28;20370;-56
2022/06/14 06:51:08;;;;;;;16.80;10.97;;;30.60;99.90;;;;;;5050350;28;20420;-60
2022/06/14 06:53:42;;;;;;;14.40;11.23;;;30.30;99.90;;;;;;5046139;28;20425;-58
2022/06/14 06:56:23;;;;;;;15.13;10.25;;;29.90;99.90;;;;;;5050521;28;20490;-59
2022/06/14 06:59:07;;;;;;;12.37;8.70;;;29.90;99.90;;;;;;5048919;28;20497;-55
2022/06/14 07:01:39;;;;;;;14.40;9.73;;;30.90;99.90;;;;;;5049943;28;20965;-57
2022/06/14 07:05:03;;;;;;;15.20;9.80;;;31.50;99.90;;;;;;5050583;28;20398;-57
2022/06/14 07:07:18;;;;;;;14.57;9.43;;;31.80;99.90;;;;;;5049182;28;20400;-55
2022/06/14 07:10:12;;;;;;;15.35;8.63;;;31.50;99.90;;;;;;5044887;28;20417;-57
2022/06/14 07:12:54;;;;;;;15.00;9.87;;;32.20;99.90;;;;;;5047204;28;20528;-58
2022/06/14 07:15:43;;;;;;;11.95;6.45;;;32.20;99.90;;;;;;5049516;28;20875;-60
2022/06/14 07:18:23;;;;;;;13.80;7.77;;;32.30;99.90;;;;;;5045831;28;20723;-59
2022/06/14 07:20:53;;;;;;;12.07;6.43;;;32.10;99.90;;;;;;5050213;28;20846;-58
2022/06/14 07:23:36;;;;;;;11.67;8.70;;;32.50;99.90;;;;;;5049164;28;20416;-57
2022/06/14 07:26:30;;;;;;;13.07;6.90;;;33.10;99.90;;;;;;5050200;28;20415;-58
2022/06/14 07:28:58;;;;;;;10.57;6.55;;;32.90;99.90;;;;;;5046022;28;20401;-58
2022/06/14 07:31:43;;;;;;;14.47;8.57;;;32.50;99.90;;;;;;5049868;28;20447;-58
2022/06/14 07:34:10;;;;;;;11.75;8.10;;;31.80;99.90;;;;;;5050046;28;20456;-58
2022/06/14 07:37:04;;;;;;;11.35;6.85;;;31.80;99.90;;;;;;5049225;28;20875;-58
2022/06/14 07:39:45;;;;;;;12.50;7.83;;;32.20;99.90;;;;;;5044694;28;20424;-58
2022/06/14 07:42:40;;;;;;;11.55;7.20;;;32.30;99.90;;;;;;5049759;28;20389;-55
2022/06/14 07:45:21;;;;;;;11.50;8.05;;;32.10;99.90;;;;;;5050060;28;20393;-57
2022/06/14 07:47:56;;;;;;;14.68;8.77;;;31.60;99.90;;;;;;5049118;28;20862;-58
2022/06/14 07:50:43;;;;;;;12.23;8.90;;;32.10;99.90;;;;;;5048472;28;20592;-58
2022/06/14 07:53:13;;;;;;;11.45;7.40;;;32.10;99.90;;;;;;5048738;28;20747;-58
2022/06/14 07:55:55;;;;;;;12.40;8.27;;;32.20;99.90;;;;;;5043196;28;20492;-58
2022/06/14 07:58:24;;;;;;;12.85;8.27;;;32.50;99.90;;;;;;5042999;28;20437;-58
2022/06/14 08:01:07;;;;;;;10.82;6.90;;;33.00;99.90;;;;;;5049381;28;20993;-58
2022/06/14 08:03:55;;;;;;;11.00;5.80;;;33.00;99.90;;;;;;5048838;28;20397;-58
2022/06/14 08:06:39;;;;;;;13.05;6.07;;;33.10;99.90;;;;;;5042307;28;20389;-58
2022/06/14 08:09:26;;;;;;;15.23;5.83;;;33.80;99.90;;;;;;5048539;28;20378;-59
2022/06/14 08:11:55;;;;;;;10.00;5.50;;;33.70;99.90;;;;;;5049560;28;20374;-58
2022/06/14 08:14:32;;;;;;;11.18;5.30;;;34.50;99.90;;;;;;5048182;28;20401;-58
2022/06/14 08:16:59;;;;;;;11.48;5.32;;;34.10;99.90;;;;;;5049242;28;20393;-58
2022/06/14 08:19:36;;;;;;;14.50;5.50;;;34.20;99.90;;;;;;5041941;28;20801;-58
2022/06/14 08:22:10;;;;;;;11.10;7.50;;;33.80;99.90;;;;;;5044264;28;20854;-58
2022/06/14 08:24:56;;;;;;;13.77;7.22;;;32.60;99.90;;;;;;5048167;28;20480;-59
2022/06/14 08:27:31;;;;;;;12.83;7.37;;;32.80;99.90;;;;;;5048215;28;20484;-58
2022/06/14 08:30:00;;;;;;;11.68;8.02;;;32.70;99.90;;;;;;5050577;28;20389;-58
2022/06/14 08:32:45;;;;;;;12.55;7.50;;;33.10;99.90;;;;;;5047077;28;20866;-58
2022/06/14 08:35:12;;;;;;;11.57;7.30;;;33.60;99.90;;;;;;5044192;28;20409;-59
2022/06/14 08:37:47;;;;;;;9.88;7.00;;;33.00;99.90;;;;;;5048516;28;20845;-58
2022/06/14 08:40:21;;;;;;;11.85;8.10;;;32.60;99.90;;;;;;5049360;28;20378;-55
2022/06/14 08:42:56;;;;;;;10.45;6.40;;;32.70;99.90;;;;;;5048758;28;20453;-58
2022/06/14 08:45:33;;;;;;;11.63;6.95;;;33.80;99.90;;;;;;5048405;28;20408;-56
2022/06/14 08:48:25;;;;;;;11.50;6.63;;;34.00;99.90;;;;;;5049055;28;20406;-58
2022/06/14 08:51:12;;;;;;;10.52;6.60;;;34.40;99.90;;;;;;5018473;28;20434;-59
2022/06/14 08:54:15;;;;;;;9.60;6.68;;;35.20;99.90;;;;;;5048710;28;20680;-58
2022/06/14 08:56:58;;;;;;;11.80;7.28;;;34.60;99.90;;;;;;5048923;28;20471;-59
2022/06/14 08:59:43;;;;;;;10.10;4.60;;;34.80;99.90;;;;;;5047901;28;20377;-59
2022/06/14 09:02:12;;;;;;;11.13;5.57;;;34.40;99.90;;;;;;5048852;28;20381;-59
2022/06/14 09:04:52;;;;;;;9.40;6.93;;;34.50;99.90;;;;;;5048436;28;20385;-59
2022/06/14 09:07:56;;;;;;;11.05;6.47;;;34.70;99.90;;;;;;5047023;28;20866;-59
2022/06/14 09:10:49;;;;;;;9.23;6.10;;;34.30;99.90;;;;;;5048042;28;20388;-59
2022/06/14 09:13:43;;;;;;;11.98;6.68;;;34.50;99.90;;;;;;5046134;28;20374;-56
2022/06/14 09:16:28;;;;;;;12.60;6.20;;;34.90;99.90;;;;;;5043755;28;20413;-59
2022/06/14 09:18:54;;;;;;;10.02;6.15;;;35.00;99.90;;;;;;5047904;28;20415;-60
2022/06/14 09:21:28;;;;;;;9.60;5.90;;;35.00;99.90;;;;;;5050247;28;20730;-60
2022/06/14 09:24:06;;;;;;;9.35;5.88;;;34.60;99.90;;;;;;5051858;28;20413;-60
2022/06/14 09:26:48;;;;;;;10.50;5.57;;;34.70;99.90;;;;;;5052125;28;20454;-57
2022/06/14 09:29:42;;;;;;;12.07;6.47;;;35.10;99.90;;;;;;5046560;28;20393;-55
2022/06/14 09:32:17;;;;;;;10.53;6.00;;;35.80;99.90;;;;;;5052648;28;20381;-59
2022/06/14 09:34:54;;;;;;;10.82;4.40;;;35.80;1.00;;;;;;5052472;28;20440;-59
2022/06/14 09:37:41;;;;;;;8.82;3.83;;;36.30;1.00;;;;;;5051835;28;20488;-60
2022/06/14 09:40:23;;;;;;;9.07;3.65;;;36.00;99.90;;;;;;5052331;28;20385;-61
2022/06/14 09:43:20;;;;;;;11.77;4.40;;;35.80;99.90;;;;;;5052212;28;20447;-60
2022/06/14 09:46:07;;;;;;;12.60;6.30;;;35.70;99.90;;;;;;5052250;28;20771;-60
2022/06/14 09:48:45;;;;;;;9.45;5.63;;;34.50;99.90;;;;;;5051174;28;20378;-59
2022/06/14 09:51:41;;;;;;;9.30;5.50;;;33.40;1.00;;;;;;5052176;28;20413;-59
2022/06/14 09:54:44;;;;;;;8.68;5.70;;;32.80;1.00;;;;;;5051965;28;20452;-59
2022/06/14 09:57:21;;;;;;;8.40;5.50;;;34.10;1.00;;;;;;5046959;28;20937;-62
2022/06/14 10:00:02;;;;;;;10.38;5.70;;;34.20;1.00;;;;;;5051773;28;20877;-60
2022/06/14 10:02:48;;;;;;;12.90;6.68;;;33.90;1.00;;;;;;5051314;28;20389;-60
2022/06/14 10:05:25;;;;;;;13.97;7.17;;;33.60;1.00;;;;;;5045419;28;20390;-55
2022/06/14 10:08:28;;;;;;;8.75;7.03;;;31.80;1.00;;;;;;5051826;28;20480;-60
2022/06/14 10:11:31;;;;;;;11.30;6.20;;;32.70;1.00;;;;;;5051725;28;20386;-60
2022/06/14 10:14:34;;;;;;;7.72;5.20;;;33.50;1.00;;;;;;5051786;28;20396;-60
2022/06/14 10:17:21;;;;;;;10.03;5.57;;;33.80;1.00;;;;;;5047437;28;20451;-64
2022/06/14 10:20:17;;;;;;;9.00;5.90;;;33.80;1.00;;;;;;5051304;28;20378;-61
2022/06/14 10:23:00;;;;;;;10.43;5.80;;;33.30;99.90;;;;;;5051334;28;20401;-59
2022/06/14 10:25:32;;;;;;;10.00;6.00;;;33.10;99.90;;;;;;5050544;28;20851;-61
2022/06/14 10:28:15;;;;;;;10.35;6.50;;;32.90;99.90;;;;;;5051227;28;20827;-60
2022/06/14 10:31:05;;;;;;;10.30;5.97;;;32.80;99.90;;;;;;5051493;28;20443;-61
2022/06/14 10:33:54;;;;;;;10.67;7.47;;;32.10;99.90;;;;;;5050001;28;20402;-61
2022/06/14 10:36:33;;;;;;;9.88;6.85;;;31.50;1.00;;;;;;5050403;28;20409;-60
2022/06/14 10:39:03;;;;;;;8.65;6.10;;;30.20;1.00;;;;;;5051228;28;20424;-60
2022/06/14 10:41:59;;;;;;;10.02;7.28;;;29.70;1.00;;;;;;5050380;28;20382;-61
2022/06/14 10:44:28;;;;;;;11.32;7.75;;;29.50;1.00;;;;;;5050301;28;20378;-62
2022/06/14 10:47:36;;;;;;;11.05;7.70;;;28.50;1.00;;;;;;5051341;28;20396;-62
2022/06/14 10:50:35;;;;;;;10.50;8.20;;;28.60;1.00;;;;;;5018105;28;20390;-60
2022/06/14 10:53:15;;;;;;;9.80;7.60;;;28.20;1.00;;;;;;5051188;28;20417;-61
2022/06/14 10:55:53;;;;;;;12.15;7.40;;;28.30;1.00;;;;;;5050295;28;20405;-61
2022/06/14 10:58:30;;;;;;;10.85;7.60;;;28.60;1.00;;;;;;5049794;28;20408;-60
2022/06/14 11:01:03;;;;;;;9.55;7.18;;;28.50;1.00;;;;;;5051232;28;20481;-61
2022/06/14 11:04:02;;;;;;;12.40;7.70;;;28.30;1.00;;;;;;5050211;28;20385;-60
2022/06/14 11:06:45;;;;;;;10.55;7.40;;;28.00;1.00;;;;;;5050035;28;20472;-61
2022/06/14 11:09:29;;;;;;;9.82;6.93;;;27.90;1.00;;;;;;5050743;28;20373;-59
2022/06/14 11:12:01;;;;;;;9.07;6.93;;;28.00;1.00;;;;;;5046371;28;20389;-62
2022/06/14 11:14:42;;;;;;;10.98;6.70;;;28.00;1.00;;;;;;5049511;28;20401;-61
2022/06/14 11:17:33;;;;;;;10.43;7.25;;;27.90;1.00;;;;;;5050880;28;20448;-61
2022/06/14 11:20:16;;;;;;;10.15;7.40;;;28.10;1.00;;;;;;5045640;28;20431;-61
2022/06/14 11:22:59;;;;;;;11.70;7.30;;;28.10;99.90;;;;;;5048905;28;20519;-61
2022/06/14 11:25:56;;;;;;;11.23;7.07;;;27.80;99.90;;;;;;5048011;28;20881;-61
2022/06/14 11:28:57;;;;;;;9.77;7.15;;;28.00;99.90;;;;;;5044808;28;20395;-61
2022/06/14 11:31:50;;;;;;;9.27;7.63;;;28.50;99.90;;;;;;5043432;28;20425;-61
2022/06/14 11:34:31;;;;;;;10.27;7.27;;;28.60;99.90;;;;;;5049877;28;20382;-56
2022/06/14 11:37:02;;;;;;;11.50;6.93;;;28.50;99.90;;;;;;5050523;28;20389;-61
2022/06/14 11:39:37;;;;;;;11.50;7.22;;;28.20;99.90;;;;;;5049158;28;20390;-62
2022/06/14 11:42:09;;;;;;;10.80;7.10;;;27.50;99.90;;;;;;5044004;28;20388;-61
2022/06/14 11:44:52;;;;;;;11.70;8.07;;;27.00;99.90;;;;;;5047995;28;20520;-57
2022/06/14 11:47:44;;;;;;;10.75;7.90;;;27.20;99.90;;;;;;5049657;28;20412;-56
2022/06/14 11:50:32;;;;;;;13.40;7.97;;;27.30;99.90;;;;;;5049735;28;20397;-62
2022/06/14 11:53:19;;;;;;;11.38;6.93;;;27.50;99.90;;;;;;5038808;28;20413;-62
2022/06/14 11:55:52;;;;;;;13.52;6.97;;;27.70;99.90;;;;;;5049958;28;20532;-62
2022/06/14 11:59:11;;;;;;;12.38;7.78;;;27.80;99.90;;;;;;5049104;28;20390;-57
2022/06/14 12:01:56;;;;;;;9.90;7.20;;;28.10;99.90;;;;;;5005248;28;20463;-61
2022/06/14 12:04:33;;;;;;;10.27;6.75;;;28.00;99.90;;;;;;5047414;28;20397;-61
2022/06/14 12:07:08;;;;;;;9.37;6.30;;;27.70;99.90;;;;;;5049528;28;20446;-62
2022/06/14 12:09:56;;;;;;;11.30;7.60;;;27.90;99.90;;;;;;5048801;28;20461;-64
2022/06/14 12:12:38;;;;;;;9.32;6.60;;;28.10;99.90;;;;;;5042487;28;20476;-64
2022/06/14 12:15:08;;;;;;;11.23;7.80;;;27.90;99.90;;;;;;5049140;28;20797;-64
2022/06/14 12:17:46;;;;;;;10.67;8.00;;;28.20;99.90;;;;;;5048872;28;20389;-61
2022/06/14 12:20:21;;;;;;;12.20;7.30;;;28.20;99.90;;;;;;5049590;28;20387;-63
2022/06/14 12:22:52;;;;;;;10.73;7.10;;;27.70;99.90;;;;;;5049098;28;20532;-63
2022/06/14 12:28:30;;;;;;;10.82;7.35;;;27.60;99.90;;;;;;5049283;28;20892;-62
2022/06/14 12:31:20;;;;;;;10.95;7.47;;;27.60;99.90;;;;;;5047823;28;20490;-62
2022/06/14 12:33:52;;;;;;;9.75;7.32;;;28.00;99.90;;;;;;5043795;28;20372;-60
2022/06/14 12:36:31;;;;;;;8.70;6.82;;;28.10;99.90;;;;;;5047840;28;20503;-58
2022/06/14 12:39:05;;;;;;;12.10;7.53;;;28.10;99.90;;;;;;5049350;28;20393;-64
2022/06/14 12:41:48;;;;;;;9.60;6.95;;;28.00;99.90;;;;;;5048423;28;20393;-63
2022/06/14 12:44:44;;;;;;;10.00;7.13;;;28.00;99.90;;;;;;5048823;28;20448;-61
2022/06/14 12:47:25;;;;;;;10.63;7.50;;;27.70;99.90;;;;;;5048979;28;20381;-61
2022/06/14 12:49:54;;;;;;;9.07;6.70;;;27.70;99.90;;;;;;5048781;28;20468;-60
2022/06/14 12:52:46;;;;;;;11.03;7.30;;;27.80;99.90;;;;;;5048446;28;20390;-56
2022/06/14 12:55:39;;;;;;;12.17;7.10;;;27.60;99.90;;;;;;5049787;28;20467;-62
2022/06/14 12:58:20;;;;;;;10.60;6.40;;;27.60;99.90;;;;;;5053570;28;20475;-62
2022/06/14 13:00:59;;;;;;;9.63;7.63;;;27.60;99.90;;;;;;5053036;28;20380;-61
2022/06/14 13:03:37;;;;;;;10.35;7.00;;;27.60;99.90;;;;;;5052336;28;20700;-62
2022/06/14 13:06:31;;;;;;;12.17;7.17;;;27.70;99.90;;;;;;5052859;28;20464;-60
2022/06/14 13:09:12;;;;;;;9.73;7.20;;;27.80;99.90;;;;;;5053039;28;20373;-62
2022/06/14 13:11:38;;;;;;;9.70;6.87;;;27.90;99.90;;;;;;5052009;28;20377;-62
2022/06/14 13:14:07;;;;;;;9.45;7.03;;;28.10;99.90;;;;;;5052634;28;20386;-62
2022/06/14 13:16:50;;;;;;;9.75;7.05;;;28.40;99.90;;;;;;5051941;28;20458;-62
2022/06/14 13:19:39;;;;;;;9.98;7.43;;;28.30;99.90;;;;;;5052566;28;20464;-56
2022/06/14 13:22:44;;;;;;;11.05;7.60;;;28.20;99.90;;;;;;5052673;28;20404;-62
2022/06/14 13:25:47;;;;;;;10.40;7.30;;;27.90;99.90;;;;;;5035153;28;20413;-62
2022/06/14 13:28:38;;;;;;;10.15;7.35;;;27.80;99.90;;;;;;5052648;28;20378;-60
2022/06/14 13:31:43;;;;;;;11.50;7.10;;;27.70;99.90;;;;;;5048181;28;20404;-61
2022/06/14 13:34:39;;;;;;;10.32;6.80;;;28.10;99.90;;;;;;5052541;28;20529;-62
2022/06/14 13:37:23;;;;;;;9.77;7.10;;;28.30;99.90;;;;;;5046593;28;20432;-61
2022/06/14 13:39:55;;;;;;;10.90;7.20;;;28.10;99.90;;;;;;5051633;28;20381;-62
2022/06/14 13:42:39;;;;;;;10.07;7.00;;;28.10;99.90;;;;;;5051017;28;20770;-57
2022/06/14 13:45:25;;;;;;;8.95;5.90;;;28.00;99.90;;;;;;5046159;28;20913;-60
2022/06/14 13:48:16;;;;;;;9.60;6.78;;;28.00;99.90;;;;;;5052224;28;20374;-63
2022/06/14 13:50:52;;;;;;;10.10;7.10;;;28.20;99.90;;;;;;5051003;28;20407;-63
2022/06/14 13:53:35;;;;;;;9.95;7.13;;;28.20;99.90;;;;;;5051879;28;20397;-57
2022/06/14 13:56:06;;;;;;;8.98;6.65;;;28.10;99.90;;;;;;5052387;28;20479;-63